sensor_id;sensor_type;location;lat;lon;timestamp;pressure;altitude;pressure_sealevel;temperature;humidity
67840;BME280;54636;51.684;5.142;2023-05-15T00:02:05;101608.06;;;10.62;100.00
67840;BME280;54636;51.684;5.142;2023-05-15T00:04:31;101607.16;;;10.65;100.00
67840;BME280;54636;51.684;5.142;2023-05-15T00:06:56;101604.59;;;10.61;100.00
67840;BME280;54636;51.684;5.142;2023-05-15T00:09:22;101587.00;;;10.47;100.00
67840;BME280;54636;51.684;5.142;2023-05-15T00:11:50;101588.94;;;10.56;100.00
67840;BME280;54636;51.684;5.142;2023-05-15T00:14:16;101591.06;;;10.52;100.00
67840;BME280;54636;51.684;5.142;2023-05-15T00:16:41;101567.13;;;10.41;100.00
67840;BME280;54636;51.684;5.142;2023-05-15T00:19:06;101556.63;;;10.34;100.00
67840;BME280;54636;51.684;5.142;2023-05-15T00:21:32;101581.28;;;10.45;100.00
67840;BME280;54636;51.684;5.142;2023-05-15T00:23:57;101554.38;;;10.33;100.00
67840;BME280;54636;51.684;5.142;2023-05-15T00:26:23;101575.47;;;10.38;100.00
67840;BME280;54636;51.684;5.142;2023-05-15T00:28:49;101568.53;;;10.37;100.00
67840;BME280;54636;51.684;5.142;2023-05-15T00:31:14;101537.97;;;10.18;100.00
67840;BME280;54636;51.684;5.142;2023-05-15T00:33:41;101561.94;;;10.29;100.00
67840;BME280;54636;51.684;5.142;2023-05-15T00:36:06;101558.47;;;10.28;100.00
67840;BME280;54636;51.684;5.142;2023-05-15T00:38:32;101562.56;;;10.23;100.00
67840;BME280;54636;51.684;5.142;2023-05-15T00:40:58;101563.31;;;10.24;100.00
67840;BME280;54636;51.684;5.142;2023-05-15T00:43:25;101540.28;;;10.01;100.00
67840;BME280;54636;51.684;5.142;2023-05-15T00:45:51;101562.72;;;10.20;100.00
67840;BME280;54636;51.684;5.142;2023-05-15T00:48:18;101572.03;;;10.19;100.00
67840;BME280;54636;51.684;5.142;2023-05-15T00:50:48;101565.72;;;10.13;100.00
67840;BME280;54636;51.684;5.142;2023-05-15T00:53:14;101564.22;;;10.12;100.00
67840;BME280;54636;51.684;5.142;2023-05-15T00:55:41;101558.97;;;10.08;100.00
67840;BME280;54636;51.684;5.142;2023-05-15T00:58:07;101561.38;;;10.06;100.00
67840;BME280;54636;51.684;5.142;2023-05-15T01:00:34;101551.59;;;10.00;100.00
67840;BME280;54636;51.684;5.142;2023-05-15T01:03:00;101566.81;;;10.06;100.00
67840;BME280;54636;51.684;5.142;2023-05-15T01:05:26;101551.91;;;10.02;100.00
67840;BME280;54636;51.684;5.142;2023-05-15T01:07:56;101534.75;;;9.86;100.00
67840;BME280;54636;51.684;5.142;2023-05-15T01:10:25;101548.00;;;9.94;100.00
67840;BME280;54636;51.684;5.142;2023-05-15T01:12:52;101535.09;;;9.79;100.00
67840;BME280;54636;51.684;5.142;2023-05-15T01:15:19;101539.28;;;9.89;100.00
67840;BME280;54636;51.684;5.142;2023-05-15T01:17:44;101534.31;;;9.79;100.00
67840;BME280;54636;51.684;5.142;2023-05-15T01:20:10;101541.25;;;9.80;100.00
67840;BME280;54636;51.684;5.142;2023-05-15T01:23:31;101545.19;;;9.79;100.00
67840;BME280;54636;51.684;5.142;2023-05-15T01:28:29;101516.16;;;9.61;100.00
67840;BME280;54636;51.684;5.142;2023-05-15T01:30:58;101514.66;;;9.60;100.00
67840;BME280;54636;51.684;5.142;2023-05-15T01:33:34;101531.53;;;9.64;100.00
67840;BME280;54636;51.684;5.142;2023-05-15T01:36:20;101523.72;;;9.57;100.00
67840;BME280;54636;51.684;5.142;2023-05-15T01:39:07;101530.03;;;9.54;100.00
67840;BME280;54636;51.684;5.142;2023-05-15T01:41:44;101529.44;;;9.50;100.00
67840;BME280;54636;51.684;5.142;2023-05-15T01:44:18;101536.66;;;9.53;100.00
67840;BME280;54636;51.684;5.142;2023-05-15T01:46:50;101534.28;;;9.46;100.00
67840;BME280;54636;51.684;5.142;2023-05-15T01:49:18;101524.78;;;9.41;100.00
67840;BME280;54636;51.684;5.142;2023-05-15T01:51:50;101511.53;;;9.34;100.00
67840;BME280;54636;51.684;5.142;2023-05-15T01:54:17;101521.78;;;9.30;100.00
67840;BME280;54636;51.684;5.142;2023-05-15T01:56:44;101517.28;;;9.27;100.00
67840;BME280;54636;51.684;5.142;2023-05-15T01:59:14;101534.75;;;9.35;100.00
67840;BME280;54636;51.684;5.142;2023-05-15T02:01:40;101529.31;;;9.35;100.00
67840;BME280;54636;51.684;5.142;2023-05-15T02:04:07;101531.72;;;9.33;100.00
67840;BME280;54636;51.684;5.142;2023-05-15T02:06:33;101530.69;;;9.31;100.00
67840;BME280;54636;51.684;5.142;2023-05-15T02:09:01;101529.16;;;9.30;100.00
67840;BME280;54636;51.684;5.142;2023-05-15T02:11:26;101544.97;;;9.31;100.00
67840;BME280;54636;51.684;5.142;2023-05-15T02:13:54;101540.91;;;9.27;100.00
67840;BME280;54636;51.684;5.142;2023-05-15T02:16:21;101541.06;;;9.32;100.00
67840;BME280;54636;51.684;5.142;2023-05-15T02:18:46;101542.28;;;9.31;100.00
67840;BME280;54636;51.684;5.142;2023-05-15T02:21:12;101541.97;;;9.29;100.00
67840;BME280;54636;51.684;5.142;2023-05-15T02:23:37;101546.63;;;9.29;100.00
67840;BME280;54636;51.684;5.142;2023-05-15T02:26:18;101545.59;;;9.35;100.00
67840;BME280;54636;51.684;5.142;2023-05-15T02:31:50;101537.28;;;9.39;100.00
67840;BME280;54636;51.684;5.142;2023-05-15T02:36:56;101531.88;;;9.30;100.00
67840;BME280;54636;51.684;5.142;2023-05-15T02:39:24;101530.69;;;9.21;100.00
67840;BME280;54636;51.684;5.142;2023-05-15T02:41:51;101543.63;;;9.27;100.00
67840;BME280;54636;51.684;5.142;2023-05-15T02:44:17;101533.53;;;9.18;100.00
67840;BME280;54636;51.684;5.142;2023-05-15T02:46:44;101541.66;;;9.18;100.00
67840;BME280;54636;51.684;5.142;2023-05-15T02:49:11;101530.69;;;9.12;100.00
67840;BME280;54636;51.684;5.142;2023-05-15T02:51:37;101515.66;;;8.93;100.00
67840;BME280;54636;51.684;5.142;2023-05-15T02:54:03;101533.28;;;9.07;100.00
67840;BME280;54636;51.684;5.142;2023-05-15T02:56:29;101516.84;;;8.92;100.00
67840;BME280;54636;51.684;5.142;2023-05-15T02:58:54;101476.03;;;8.59;100.00
67840;BME280;54636;51.684;5.142;2023-05-15T03:01:20;101519.56;;;8.92;100.00
67840;BME280;54636;51.684;5.142;2023-05-15T03:03:46;101526.63;;;8.89;100.00
67840;BME280;54636;51.684;5.142;2023-05-15T03:06:11;101506.75;;;8.74;100.00
67840;BME280;54636;51.684;5.142;2023-05-15T03:08:37;101517.44;;;8.78;100.00
67840;BME280;54636;51.684;5.142;2023-05-15T03:11:02;101513.09;;;8.80;100.00
67840;BME280;54636;51.684;5.142;2023-05-15T03:13:27;101516.69;;;8.77;100.00
67840;BME280;54636;51.684;5.142;2023-05-15T03:15:53;101504.66;;;8.69;100.00
67840;BME280;54636;51.684;5.142;2023-05-15T03:18:18;101503.13;;;8.59;100.00
67840;BME280;54636;51.684;5.142;2023-05-15T03:20:44;101520.91;;;8.78;100.00
67840;BME280;54636;51.684;5.142;2023-05-15T03:23:09;101509.75;;;8.67;100.00
67840;BME280;54636;51.684;5.142;2023-05-15T03:25:35;101505.69;;;8.63;100.00
67840;BME280;54636;51.684;5.142;2023-05-15T03:28:00;101512.31;;;8.71;100.00
67840;BME280;54636;51.684;5.142;2023-05-15T03:30:26;101475.00;;;8.38;100.00
67840;BME280;54636;51.684;5.142;2023-05-15T03:32:51;101511.41;;;8.65;100.00
67840;BME280;54636;51.684;5.142;2023-05-15T03:35:16;101503.44;;;8.61;100.00
67840;BME280;54636;51.684;5.142;2023-05-15T03:37:42;101507.47;;;8.56;100.00
67840;BME280;54636;51.684;5.142;2023-05-15T03:40:07;101492.72;;;8.48;100.00
67840;BME280;54636;51.684;5.142;2023-05-15T03:42:33;101505.97;;;8.55;100.00
67840;BME280;54636;51.684;5.142;2023-05-15T03:44:58;101500.69;;;8.52;100.00
67840;BME280;54636;51.684;5.142;2023-05-15T03:47:24;101506.88;;;8.52;100.00
67840;BME280;54636;51.684;5.142;2023-05-15T03:49:49;101494.38;;;8.46;100.00
67840;BME280;54636;51.684;5.142;2023-05-15T03:52:15;101503.41;;;8.52;100.00
67840;BME280;54636;51.684;5.142;2023-05-15T03:54:41;101510.78;;;8.51;100.00
67840;BME280;54636;51.684;5.142;2023-05-15T03:57:06;101507.16;;;8.45;100.00
67840;BME280;54636;51.684;5.142;2023-05-15T03:59:32;101508.06;;;8.51;100.00
67840;BME280;54636;51.684;5.142;2023-05-15T04:01:57;101512.75;;;8.51;100.00
67840;BME280;54636;51.684;5.142;2023-05-15T04:04:23;101487.16;;;8.34;100.00
67840;BME280;54636;51.684;5.142;2023-05-15T04:06:49;101520.84;;;8.51;100.00
67840;BME280;54636;51.684;5.142;2023-05-15T04:09:14;101505.22;;;8.37;100.00
67840;BME280;54636;51.684;5.142;2023-05-15T04:11:40;101515.00;;;8.43;100.00
67840;BME280;54636;51.684;5.142;2023-05-15T04:14:05;101524.78;;;8.50;100.00
67840;BME280;54636;51.684;5.142;2023-05-15T04:16:31;101518.59;;;8.49;100.00
67840;BME280;54636;51.684;5.142;2023-05-15T04:18:56;101525.69;;;8.56;100.00
67840;BME280;54636;51.684;5.142;2023-05-15T04:21:21;101513.50;;;8.51;100.00
67840;BME280;54636;51.684;5.142;2023-05-15T04:23:47;101521.78;;;8.57;100.00
67840;BME280;54636;51.684;5.142;2023-05-15T04:26:12;101531.28;;;8.71;100.00
67840;BME280;54636;51.684;5.142;2023-05-15T04:28:37;101523.31;;;8.76;100.00
67840;BME280;54636;51.684;5.142;2023-05-15T04:31:03;101531.59;;;8.82;100.00
67840;BME280;54636;51.684;5.142;2023-05-15T04:33:28;101526.34;;;8.87;100.00
67840;BME280;54636;51.684;5.142;2023-05-15T04:35:53;101526.03;;;8.95;100.00
67840;BME280;54636;51.684;5.142;2023-05-15T04:38:19;101532.81;;;9.08;100.00
67840;BME280;54636;51.684;5.142;2023-05-15T04:40:44;101535.81;;;9.19;100.00
67840;BME280;54636;51.684;5.142;2023-05-15T04:43:10;101535.66;;;9.23;100.00
67840;BME280;54636;51.684;5.142;2023-05-15T04:45:35;101519.38;;;9.23;100.00
67840;BME280;54636;51.684;5.142;2023-05-15T04:48:01;101504.34;;;9.13;100.00
67840;BME280;54636;51.684;5.142;2023-05-15T04:50:27;101541.34;;;9.43;100.00
67840;BME280;54636;51.684;5.142;2023-05-15T04:52:52;101505.69;;;9.27;100.00
67840;BME280;54636;51.684;5.142;2023-05-15T04:55:18;101536.34;;;9.60;100.00
67840;BME280;54636;51.684;5.142;2023-05-15T04:57:45;101549.75;;;9.64;100.00
67840;BME280;54636;51.684;5.142;2023-05-15T05:00:11;101544.63;;;9.66;100.00
67840;BME280;54636;51.684;5.142;2023-05-15T05:02:37;101545.53;;;9.72;100.00
67840;BME280;54636;51.684;5.142;2023-05-15T05:05:04;101527.75;;;9.62;100.00
67840;BME280;54636;51.684;5.142;2023-05-15T05:07:30;101537.69;;;9.74;100.00
67840;BME280;54636;51.684;5.142;2023-05-15T05:09:55;101539.00;;;9.78;100.00
67840;BME280;54636;51.684;5.142;2023-05-15T05:12:21;101553.31;;;9.79;100.00
67840;BME280;54636;51.684;5.142;2023-05-15T05:14:46;101543.97;;;9.80;100.00
67840;BME280;54636;51.684;5.142;2023-05-15T05:17:11;101562.47;;;9.90;100.00
67840;BME280;54636;51.684;5.142;2023-05-15T05:19:37;101556.13;;;10.03;100.00
67840;BME280;54636;51.684;5.142;2023-05-15T05:22:03;101569.66;;;10.12;100.00
67840;BME280;54636;51.684;5.142;2023-05-15T05:24:30;101518.03;;;9.88;100.00
67840;BME280;54636;51.684;5.142;2023-05-15T05:26:56;101545.84;;;10.07;100.00
67840;BME280;54636;51.684;5.142;2023-05-15T05:29:24;101555.16;;;10.24;100.00
67840;BME280;54636;51.684;5.142;2023-05-15T05:31:50;101559.22;;;10.29;100.00
67840;BME280;54636;51.684;5.142;2023-05-15T05:34:15;101562.19;;;10.40;100.00
67840;BME280;54636;51.684;5.142;2023-05-15T05:36:40;101558.81;;;10.45;100.00
67840;BME280;54636;51.684;5.142;2023-05-15T05:39:06;101548.22;;;10.47;100.00
67840;BME280;54636;51.684;5.142;2023-05-15T05:41:31;101556.38;;;10.47;100.00
67840;BME280;54636;51.684;5.142;2023-05-15T05:43:57;101564.59;;;10.62;100.00
67840;BME280;54636;51.684;5.142;2023-05-15T05:46:22;101560.03;;;10.68;100.00
67840;BME280;54636;51.684;5.142;2023-05-15T05:48:47;101556.50;;;10.76;100.00
67840;BME280;54636;51.684;5.142;2023-05-15T05:51:14;101560.16;;;10.97;100.00
67840;BME280;54636;51.684;5.142;2023-05-15T05:53:39;101543.09;;;10.97;100.00
67840;BME280;54636;51.684;5.142;2023-05-15T05:56:05;101556.63;;;11.20;100.00
67840;BME280;54636;51.684;5.142;2023-05-15T05:58:31;101553.81;;;11.30;100.00
67840;BME280;54636;51.684;5.142;2023-05-15T06:00:56;101555.25;;;11.40;100.00
67840;BME280;54636;51.684;5.142;2023-05-15T06:03:22;101548.22;;;11.48;100.00
67840;BME280;54636;51.684;5.142;2023-05-15T06:05:48;101545.97;;;11.61;100.00
67840;BME280;54636;51.684;5.142;2023-05-15T06:08:14;101562.38;;;11.81;100.00
67840;BME280;54636;51.684;5.142;2023-05-15T06:10:39;101548.56;;;11.70;100.00
67840;BME280;54636;51.684;5.142;2023-05-15T06:13:06;101553.94;;;11.79;100.00
67840;BME280;54636;51.684;5.142;2023-05-15T06:15:32;101549.63;;;11.87;100.00
67840;BME280;54636;51.684;5.142;2023-05-15T06:17:57;101547.28;;;11.95;100.00
67840;BME280;54636;51.684;5.142;2023-05-15T06:20:22;101545.47;;;12.07;100.00
67840;BME280;54636;51.684;5.142;2023-05-15T06:22:48;101549.19;;;12.24;100.00
67840;BME280;54636;51.684;5.142;2023-05-15T06:25:13;101551.84;;;12.39;100.00
67840;BME280;54636;51.684;5.142;2023-05-15T06:27:42;101553.84;;;12.59;100.00
67840;BME280;54636;51.684;5.142;2023-05-15T06:30:08;101547.16;;;12.60;100.00
67840;BME280;54636;51.684;5.142;2023-05-15T06:32:34;101545.00;;;12.84;100.00
67840;BME280;54636;51.684;5.142;2023-05-15T06:35:00;101544.53;;;12.85;100.00
67840;BME280;54636;51.684;5.142;2023-05-15T06:37:25;101535.94;;;12.72;100.00
67840;BME280;54636;51.684;5.142;2023-05-15T06:39:50;101554.75;;;12.91;100.00
67840;BME280;54636;51.684;5.142;2023-05-15T06:42:16;101562.50;;;12.98;100.00
67840;BME280;54636;51.684;5.142;2023-05-15T06:44:41;101514.66;;;12.76;100.00
67840;BME280;54636;51.684;5.142;2023-05-15T06:47:06;101549.03;;;13.14;99.46
67840;BME280;54636;51.684;5.142;2023-05-15T06:49:32;101553.56;;;13.43;98.29
67840;BME280;54636;51.684;5.142;2023-05-15T06:51:57;101558.88;;;13.52;98.29
67840;BME280;54636;51.684;5.142;2023-05-15T06:54:22;101561.47;;;13.67;97.69
67840;BME280;54636;51.684;5.142;2023-05-15T06:56:48;101528.00;;;13.72;96.86
67840;BME280;54636;51.684;5.142;2023-05-15T06:59:14;101563.28;;;14.07;95.06
67840;BME280;54636;51.684;5.142;2023-05-15T07:01:39;101557.06;;;14.07;93.20
67840;BME280;54636;51.684;5.142;2023-05-15T07:04:05;101568.50;;;14.48;92.68
67840;BME280;54636;51.684;5.142;2023-05-15T07:06:30;101555.94;;;14.67;91.85
67840;BME280;54636;51.684;5.142;2023-05-15T07:08:59;101544.19;;;14.56;91.36
67840;BME280;54636;51.684;5.142;2023-05-15T07:11:25;101560.84;;;14.58;90.43
67840;BME280;54636;51.684;5.142;2023-05-15T07:13:51;101552.94;;;14.65;90.30
67840;BME280;54636;51.684;5.142;2023-05-15T07:16:17;101553.25;;;14.84;91.00
67840;BME280;54636;51.684;5.142;2023-05-15T07:18:42;101550.53;;;14.95;89.24
67840;BME280;54636;51.684;5.142;2023-05-15T07:21:07;101526.19;;;14.92;86.90
67840;BME280;54636;51.684;5.142;2023-05-15T07:23:33;101544.41;;;15.23;87.37
67840;BME280;54636;51.684;5.142;2023-05-15T07:25:58;101504.31;;;15.08;84.90
67840;BME280;54636;51.684;5.142;2023-05-15T07:28:23;101548.16;;;15.47;86.47
67840;BME280;54636;51.684;5.142;2023-05-15T07:30:49;101544.94;;;15.66;85.80
67840;BME280;54636;51.684;5.142;2023-05-15T07:33:14;101542.69;;;15.92;82.52
67840;BME280;54636;51.684;5.142;2023-05-15T07:35:40;101553.38;;;16.12;83.18
67840;BME280;54636;51.684;5.142;2023-05-15T07:38:05;101535.72;;;16.02;81.75
67840;BME280;54636;51.684;5.142;2023-05-15T07:40:31;101538.19;;;16.23;82.85
67840;BME280;54636;51.684;5.142;2023-05-15T07:42:56;101547.34;;;16.36;81.15
67840;BME280;54636;51.684;5.142;2023-05-15T07:45:23;101535.69;;;16.19;80.79
67840;BME280;54636;51.684;5.142;2023-05-15T07:47:48;101558.28;;;16.47;79.41
67840;BME280;54636;51.684;5.142;2023-05-15T07:50:15;101528.81;;;16.65;77.91
67840;BME280;54636;51.684;5.142;2023-05-15T07:52:40;101542.31;;;17.09;78.42
67840;BME280;54636;51.684;5.142;2023-05-15T07:55:08;101524.50;;;17.22;75.50
67840;BME280;54636;51.684;5.142;2023-05-15T07:57:33;101534.78;;;17.51;74.24
67840;BME280;54636;51.684;5.142;2023-05-15T07:59:59;101542.16;;;17.67;73.08
67840;BME280;54636;51.684;5.142;2023-05-15T08:02:26;101548.13;;;17.71;71.89
67840;BME280;54636;51.684;5.142;2023-05-15T08:04:51;101544.19;;;17.91;73.94
67840;BME280;54636;51.684;5.142;2023-05-15T08:07:17;101518.19;;;17.92;73.65
67840;BME280;54636;51.684;5.142;2023-05-15T08:09:42;101540.78;;;18.09;71.55
67840;BME280;54636;51.684;5.142;2023-05-15T08:12:19;101537.97;;;18.15;74.28
67840;BME280;54636;51.684;5.142;2023-05-15T08:14:52;101537.06;;;18.07;71.71
67840;BME280;54636;51.684;5.142;2023-05-15T08:17:17;101524.56;;;17.82;69.78
67840;BME280;54636;51.684;5.142;2023-05-15T08:19:43;101542.84;;;17.73;70.42
67840;BME280;54636;51.684;5.142;2023-05-15T08:22:09;101545.09;;;17.75;72.31
67840;BME280;54636;51.684;5.142;2023-05-15T08:24:34;101541.59;;;17.74;70.89
67840;BME280;54636;51.684;5.142;2023-05-15T08:27:00;101511.03;;;17.54;72.61
67840;BME280;54636;51.684;5.142;2023-05-15T08:29:25;101540.06;;;17.79;71.76
67840;BME280;54636;51.684;5.142;2023-05-15T08:31:51;101530.88;;;17.71;70.56
67840;BME280;54636;51.684;5.142;2023-05-15T08:34:17;101523.22;;;17.58;72.44
67840;BME280;54636;51.684;5.142;2023-05-15T08:36:43;101518.63;;;17.42;71.35
67840;BME280;54636;51.684;5.142;2023-05-15T08:39:09;101527.69;;;17.31;72.27
67840;BME280;54636;51.684;5.142;2023-05-15T08:41:59;101527.22;;;17.27;74.06
67840;BME280;54636;51.684;5.142;2023-05-15T08:44:27;101542.03;;;17.13;73.71
67840;BME280;54636;51.684;5.142;2023-05-15T08:46:52;101533.41;;;16.92;74.24
67840;BME280;54636;51.684;5.142;2023-05-15T08:50:10;101548.47;;;16.74;75.47
67840;BME280;54636;51.684;5.142;2023-05-15T08:52:10;101533.28;;;16.62;76.53
67840;BME280;54636;51.684;5.142;2023-05-15T08:54:37;101536.06;;;16.57;76.57
67840;BME280;54636;51.684;5.142;2023-05-15T08:57:03;101544.53;;;16.64;80.65
67840;BME280;54636;51.684;5.142;2023-05-15T08:59:29;101546.28;;;16.56;77.23
67840;BME280;54636;51.684;5.142;2023-05-15T09:01:54;101547.06;;;16.40;75.57
67840;BME280;54636;51.684;5.142;2023-05-15T09:04:21;101545.84;;;16.30;76.56
67840;BME280;54636;51.684;5.142;2023-05-15T09:06:47;101533.22;;;16.16;76.98
67840;BME280;54636;51.684;5.142;2023-05-15T09:09:13;101546.16;;;16.21;77.96
67840;BME280;54636;51.684;5.142;2023-05-15T09:11:44;101545.59;;;16.28;79.24
67840;BME280;54636;51.684;5.142;2023-05-15T09:14:10;101543.13;;;16.30;79.62
67840;BME280;54636;51.684;5.142;2023-05-15T09:16:36;101535.09;;;16.48;78.59
67840;BME280;54636;51.684;5.142;2023-05-15T09:19:03;101552.50;;;16.62;77.45
67840;BME280;54636;51.684;5.142;2023-05-15T09:21:30;101551.50;;;16.60;78.39
67840;BME280;54636;51.684;5.142;2023-05-15T09:24:20;101539.03;;;16.59;79.25
67840;BME280;54636;51.684;5.142;2023-05-15T09:27:05;101558.50;;;16.66;79.73
67840;BME280;54636;51.684;5.142;2023-05-15T09:29:35;101561.47;;;16.68;79.81
67840;BME280;54636;51.684;5.142;2023-05-15T09:32:13;101554.50;;;16.67;78.44
67840;BME280;54636;51.684;5.142;2023-05-15T09:34:40;101558.44;;;16.77;78.25
67840;BME280;54636;51.684;5.142;2023-05-15T09:37:07;101566.63;;;16.89;77.58
67840;BME280;54636;51.684;5.142;2023-05-15T09:39:34;101550.03;;;16.64;77.17
67840;BME280;54636;51.684;5.142;2023-05-15T09:42:11;101565.94;;;16.71;76.98
67840;BME280;54636;51.684;5.142;2023-05-15T09:44:44;101562.47;;;16.60;77.73
67840;BME280;54636;51.684;5.142;2023-05-15T09:47:11;101568.97;;;16.51;77.28
67840;BME280;54636;51.684;5.142;2023-05-15T09:49:38;101557.06;;;16.37;78.61
67840;BME280;54636;51.684;5.142;2023-05-15T09:52:07;101538.41;;;16.25;78.76
67840;BME280;54636;51.684;5.142;2023-05-15T09:54:34;101571.00;;;16.45;79.83
67840;BME280;54636;51.684;5.142;2023-05-15T09:57:10;101572.22;;;16.55;80.29
67840;BME280;54636;51.684;5.142;2023-05-15T09:59:43;101567.00;;;16.52;80.24
67840;BME280;54636;51.684;5.142;2023-05-15T10:02:12;101569.25;;;16.47;79.49
67840;BME280;54636;51.684;5.142;2023-05-15T10:04:38;101561.53;;;16.35;79.93
67840;BME280;54636;51.684;5.142;2023-05-15T10:07:06;101571.06;;;16.23;80.94
67840;BME280;54636;51.684;5.142;2023-05-15T10:09:32;101560.63;;;16.10;81.35
67840;BME280;54636;51.684;5.142;2023-05-15T10:11:57;101548.66;;;16.13;81.89
67840;BME280;54636;51.684;5.142;2023-05-15T10:14:23;101566.34;;;16.18;80.92
67840;BME280;54636;51.684;5.142;2023-05-15T10:16:51;101567.34;;;16.14;82.73
67840;BME280;54636;51.684;5.142;2023-05-15T10:19:18;101568.84;;;16.04;82.32
67840;BME280;54636;51.684;5.142;2023-05-15T10:21:48;101569.09;;;15.95;83.27
67840;BME280;54636;51.684;5.142;2023-05-15T10:24:18;101569.84;;;15.90;82.72
67840;BME280;54636;51.684;5.142;2023-05-15T10:26:46;101541.72;;;15.62;82.27
67840;BME280;54636;51.684;5.142;2023-05-15T10:29:13;101575.06;;;15.71;83.34
67840;BME280;54636;51.684;5.142;2023-05-15T10:31:40;101561.38;;;15.66;83.90
67840;BME280;54636;51.684;5.142;2023-05-15T10:34:06;101561.88;;;15.75;82.82
67840;BME280;54636;51.684;5.142;2023-05-15T10:36:33;101570.09;;;15.92;84.06
67840;BME280;54636;51.684;5.142;2023-05-15T10:39:01;101567.84;;;16.02;83.44
67840;BME280;54636;51.684;5.142;2023-05-15T10:41:31;101535.00;;;15.79;83.32
67840;BME280;54636;51.684;5.142;2023-05-15T10:43:58;101570.34;;;16.00;83.48
67840;BME280;54636;51.684;5.142;2023-05-15T10:46:24;101558.66;;;15.88;84.25
67840;BME280;54636;51.684;5.142;2023-05-15T10:48:50;101553.91;;;15.83;84.03
67840;BME280;54636;51.684;5.142;2023-05-15T10:51:27;101569.59;;;15.88;84.92
67840;BME280;54636;51.684;5.142;2023-05-15T10:53:54;101545.44;;;15.70;83.73
67840;BME280;54636;51.684;5.142;2023-05-15T10:56:20;101558.16;;;15.67;85.15
67840;BME280;54636;51.684;5.142;2023-05-15T10:58:49;101557.66;;;15.74;85.02
67840;BME280;54636;51.684;5.142;2023-05-15T11:01:28;101569.84;;;15.90;84.54
67840;BME280;54636;51.684;5.142;2023-05-15T11:04:11;101547.69;;;15.77;84.58
67840;BME280;54636;51.684;5.142;2023-05-15T11:06:48;101548.19;;;15.81;85.11
67840;BME280;54636;51.684;5.142;2023-05-15T11:19:38;101556.03;;;16.46;83.66
67840;BME280;54636;51.684;5.142;2023-05-15T11:24:59;101554.06;;;16.41;83.45
67840;BME280;54636;51.684;5.142;2023-05-15T11:35:29;101552.66;;;16.12;85.65
67840;BME280;54636;51.684;5.142;2023-05-15T11:40:43;101561.38;;;16.16;86.11
67840;BME280;54636;51.684;5.142;2023-05-15T11:45:43;101532.72;;;16.11;85.49
67840;BME280;54636;51.684;5.142;2023-05-15T11:48:12;101549.66;;;16.16;86.53
67840;BME280;54636;51.684;5.142;2023-05-15T11:50:39;101538.69;;;16.10;86.79
67840;BME280;54636;51.684;5.142;2023-05-15T11:53:07;101530.00;;;16.00;87.66
67840;BME280;54636;51.684;5.142;2023-05-15T11:55:35;101543.44;;;15.98;88.10
67840;BME280;54636;51.684;5.142;2023-05-15T11:58:02;101555.16;;;15.88;88.58
67840;BME280;54636;51.684;5.142;2023-05-15T12:00:28;101509.59;;;15.51;89.53
67840;BME280;54636;51.684;5.142;2023-05-15T12:02:54;101549.94;;;15.67;90.48
67840;BME280;54636;51.684;5.142;2023-05-15T12:05:20;101554.16;;;15.85;90.31
67840;BME280;54636;51.684;5.142;2023-05-15T12:07:45;101537.47;;;15.94;89.16
67840;BME280;54636;51.684;5.142;2023-05-15T12:10:12;101534.19;;;16.18;87.47
67840;BME280;54636;51.684;5.142;2023-05-15T12:12:42;101551.75;;;16.67;85.54
67840;BME280;54636;51.684;5.142;2023-05-15T12:15:12;101549.75;;;17.15;82.56
67840;BME280;54636;51.684;5.142;2023-05-15T12:17:41;101543.56;;;17.44;78.98
67840;BME280;54636;51.684;5.142;2023-05-15T12:20:09;101540.97;;;17.57;78.56
67840;BME280;54636;51.684;5.142;2023-05-15T12:22:39;101545.66;;;17.32;78.43
67840;BME280;54636;51.684;5.142;2023-05-15T12:25:06;101550.84;;;17.00;81.07
67840;BME280;54636;51.684;5.142;2023-05-15T12:27:32;101529.00;;;16.84;83.33
67840;BME280;54636;51.684;5.142;2023-05-15T12:29:58;101542.38;;;16.93;82.06
67840;BME280;54636;51.684;5.142;2023-05-15T12:32:24;101544.84;;;17.02;82.13
67840;BME280;54636;51.684;5.142;2023-05-15T12:34:50;101522.06;;;17.12;80.30
67840;BME280;54636;51.684;5.142;2023-05-15T12:37:18;101550.31;;;17.43;79.09
67840;BME280;54636;51.684;5.142;2023-05-15T12:39:59;101537.69;;;17.29;80.00
67840;BME280;54636;51.684;5.142;2023-05-15T12:42:24;101540.59;;;17.01;80.76
67840;BME280;54636;51.684;5.142;2023-05-15T12:44:54;101543.25;;;16.76;82.22
67840;BME280;54636;51.684;5.142;2023-05-15T12:47:23;101530.06;;;16.58;81.58
67840;BME280;54636;51.684;5.142;2023-05-15T12:49:55;101531.59;;;16.48;83.56
67840;BME280;54636;51.684;5.142;2023-05-15T12:52:20;101519.16;;;16.36;83.40
67840;BME280;54636;51.684;5.142;2023-05-15T12:54:46;101528.63;;;16.46;82.57
67840;BME280;54636;51.684;5.142;2023-05-15T12:57:12;101528.16;;;16.36;83.62
67840;BME280;54636;51.684;5.142;2023-05-15T12:59:39;101546.03;;;16.54;82.85
67840;BME280;54636;51.684;5.142;2023-05-15T13:02:09;101546.03;;;16.65;79.87
67840;BME280;54636;51.684;5.142;2023-05-15T13:04:35;101536.50;;;16.77;80.53
67840;BME280;54636;51.684;5.142;2023-05-15T13:07:01;101543.28;;;17.12;79.18
67840;BME280;54636;51.684;5.142;2023-05-15T13:09:26;101546.38;;;17.38;77.37
67840;BME280;54636;51.684;5.142;2023-05-15T13:11:55;101522.13;;;17.42;76.33
67840;BME280;54636;51.684;5.142;2023-05-15T13:14:21;101539.13;;;17.71;75.95
67840;BME280;54636;51.684;5.142;2023-05-15T13:16:51;101559.91;;;17.96;73.97
67840;BME280;54636;51.684;5.142;2023-05-15T13:19:16;101535.59;;;17.76;73.36
67840;BME280;54636;51.684;5.142;2023-05-15T13:21:42;101562.09;;;17.73;74.72
67840;BME280;54636;51.684;5.142;2023-05-15T13:24:09;101560.41;;;17.59;75.73